createdAt,value
2018-05-31T00:00:26.299Z,98473.67
2018-05-31T00:02:53.849Z,98470.30
2018-05-31T00:05:21.360Z,98467.78
2018-05-31T00:07:48.940Z,98459.89
2018-05-31T00:10:16.480Z,98458.38
2018-05-31T00:12:44.051Z,98455.16
2018-05-31T00:15:11.566Z,98453.23
2018-05-31T00:17:39.087Z,98449.53
2018-05-31T00:20:06.626Z,98440.00
2018-05-31T00:22:34.186Z,98435.37
2018-05-31T00:25:01.777Z,98429.61
2018-05-31T00:27:29.366Z,98439.68
2018-05-31T00:29:56.869Z,98441.26
2018-05-31T00:32:24.418Z,98428.99
2018-05-31T00:34:52.020Z,98423.58
2018-05-31T00:37:19.538Z,98427.90
2018-05-31T00:39:47.062Z,98423.63
2018-05-31T00:42:14.563Z,98416.95
2018-05-31T00:44:42.150Z,98422.72
2018-05-31T00:47:09.682Z,98417.98
2018-05-31T00:49:37.187Z,98421.17
2018-05-31T00:52:04.687Z,98417.53
2018-05-31T00:54:32.158Z,98410.88
2018-05-31T00:56:59.723Z,98415.37
2018-05-31T00:59:27.198Z,98412.74
2018-05-31T01:01:54.774Z,98419.50
2018-05-31T01:04:22.292Z,98426.26
2018-05-31T01:06:49.856Z,98426.84
2018-05-31T01:09:17.418Z,98420.44
2018-05-31T01:11:44.974Z,98418.12
2018-05-31T01:14:12.495Z,98417.44
2018-05-31T01:16:39.987Z,98410.68
2018-05-31T01:19:07.484Z,98412.97
2018-05-31T01:21:35.002Z,98401.25
2018-05-31T01:24:02.486Z,98409.94
2018-05-31T01:26:30.032Z,98404.28
2018-05-31T01:28:57.507Z,98409.33
2018-05-31T01:31:25.061Z,98411.20
2018-05-31T01:33:52.543Z,98411.52
2018-05-31T01:36:20.058Z,98406.05
2018-05-31T01:38:47.644Z,98407.78
2018-05-31T01:41:15.229Z,98411.68
2018-05-31T01:43:42.739Z,98410.23
2018-05-31T01:46:10.237Z,98404.34
2018-05-31T01:48:37.763Z,98403.20
2018-05-31T01:51:05.314Z,98408.20
2018-05-31T01:53:32.872Z,98406.11
2018-05-31T01:56:00.431Z,98410.06
2018-05-31T01:58:27.923Z,98405.59
2018-05-31T02:00:55.459Z,98402.67
2018-05-31T02:03:22.971Z,98401.83
2018-05-31T02:06:00.363Z,98397.01
2018-05-31T02:08:27.862Z,98397.78
2018-05-31T02:10:55.334Z,98392.79
2018-05-31T02:13:22.894Z,98386.29
2018-05-31T02:15:50.361Z,98384.30
2018-05-31T02:18:17.891Z,98379.66
2018-05-31T02:20:45.455Z,98385.58
2018-05-31T02:23:13.022Z,98379.79
2018-05-31T02:25:40.578Z,98376.86
2018-05-31T02:28:08.149Z,98374.92
2018-05-31T02:30:35.623Z,98374.72
2018-05-31T02:33:03.144Z,98376.22
2018-05-31T02:35:30.714Z,98377.75
2018-05-31T02:37:58.206Z,98372.96
2018-05-31T02:40:25.698Z,98370.41
2018-05-31T02:42:53.246Z,98372.44
2018-05-31T02:45:20.710Z,98371.52
2018-05-31T02:47:48.198Z,98359.44
2018-05-31T02:50:15.862Z,98366.86
2018-05-31T02:52:43.425Z,98375.98
2018-05-31T02:55:10.910Z,98375.64
2018-05-31T02:57:38.407Z,98379.81
2018-05-31T03:00:05.887Z,98386.94
2018-05-31T03:02:33.400Z,98380.53
2018-05-31T03:05:00.922Z,98384.41
2018-05-31T03:07:28.397Z,98371.42
2018-05-31T03:09:55.926Z,98376.97
2018-05-31T03:12:23.495Z,98371.23
2018-05-31T03:14:51.079Z,98369.23
2018-05-31T03:17:18.558Z,98365.42
2018-05-31T03:19:46.074Z,98363.31
2018-05-31T03:22:13.634Z,98367.02
2018-05-31T03:24:41.191Z,98360.69
2018-05-31T03:27:08.682Z,98359.59
2018-05-31T03:29:36.214Z,98362.23
2018-05-31T03:32:03.857Z,98363.82
2018-05-31T03:34:31.353Z,98367.86
2018-05-31T03:36:58.831Z,98367.45
2018-05-31T03:39:26.378Z,98370.82
2018-05-31T03:41:53.862Z,98367.86
2018-05-31T03:44:21.362Z,98362.98
2018-05-31T03:46:48.854Z,98361.55
2018-05-31T03:49:16.378Z,98359.95
2018-05-31T03:51:43.859Z,98356.64
2018-05-31T03:54:11.355Z,98352.50
2018-05-31T03:56:38.855Z,98349.48
2018-05-31T03:59:06.419Z,98351.77
2018-05-31T04:01:33.910Z,98353.69
2018-05-31T04:04:01.439Z,98354.98
2018-05-31T04:06:28.922Z,98361.45
2018-05-31T04:08:56.448Z,98365.16
2018-05-31T04:11:23.935Z,98363.41
2018-05-31T04:13:51.409Z,98375.55
2018-05-31T04:16:18.941Z,98374.62
2018-05-31T04:18:46.491Z,98378.57
2018-05-31T04:21:14.005Z,98377.39
2018-05-31T04:23:41.481Z,98372.43
2018-05-31T04:26:08.984Z,98382.12
2018-05-31T04:28:36.472Z,98377.90
2018-05-31T04:31:03.969Z,98382.37
2018-05-31T04:33:31.454Z,98372.34
2018-05-31T04:35:58.998Z,98374.48
2018-05-31T04:38:26.486Z,98380.05
2018-05-31T04:40:54.010Z,98376.84
2018-05-31T04:43:21.490Z,98383.31
2018-05-31T04:45:49.015Z,98385.07
2018-05-31T04:48:16.504Z,98397.23
2018-05-31T04:50:44.031Z,98395.28
2018-05-31T04:53:11.510Z,98400.08
2018-05-31T04:55:39.021Z,98393.48
2018-05-31T04:58:06.502Z,98397.36
2018-05-31T05:00:34.007Z,98395.72
2018-05-31T05:03:01.558Z,98397.16
2018-05-31T05:05:29.105Z,98400.24
2018-05-31T05:07:56.606Z,98402.09
2018-05-31T05:10:24.136Z,98399.23
2018-05-31T05:12:51.654Z,98408.38
2018-05-31T05:15:19.234Z,98407.84
2018-05-31T05:17:46.803Z,98404.95
2018-05-31T05:20:14.359Z,98404.33
2018-05-31T05:22:41.919Z,98412.11
2018-05-31T05:25:09.474Z,98421.11
2018-05-31T05:27:37.043Z,98425.34
2018-05-31T05:30:04.594Z,98430.25
2018-05-31T05:32:32.210Z,98431.97
2018-05-31T05:34:59.713Z,98425.08
2018-05-31T05:37:27.222Z,98418.41
2018-05-31T05:39:54.698Z,98420.39
2018-05-31T05:42:22.294Z,98427.41
2018-05-31T05:44:49.774Z,98431.92
2018-05-31T05:47:17.310Z,98439.37
2018-05-31T05:49:44.878Z,98436.22
2018-05-31T05:52:12.439Z,98434.02
2018-05-31T05:54:39.914Z,98439.12
2018-05-31T05:57:07.406Z,98443.86
2018-05-31T05:59:34.893Z,98441.15
2018-05-31T06:02:02.403Z,98443.39
2018-05-31T06:04:29.960Z,98446.09
2018-05-31T06:06:57.482Z,98440.39
2018-05-31T06:09:25.039Z,98444.08
2018-05-31T06:11:52.609Z,98442.06
2018-05-31T06:14:20.103Z,98443.70
2018-05-31T06:16:47.618Z,98455.24
2018-05-31T06:19:15.241Z,98450.88
2018-05-31T06:21:42.846Z,98460.02
2018-05-31T06:24:10.403Z,98463.55
2018-05-31T06:26:37.923Z,98465.92
2018-05-31T06:29:05.427Z,98465.32
2018-05-31T06:31:32.923Z,98465.04
2018-05-31T06:34:00.438Z,98461.30
2018-05-31T06:36:27.927Z,98469.70
2018-05-31T06:38:55.422Z,98469.08
2018-05-31T06:41:24.180Z,98475.70
2018-05-31T06:43:52.867Z,98476.31
2018-05-31T06:46:21.750Z,98476.58
2018-05-31T06:48:51.571Z,98480.39
2018-05-31T06:51:21.069Z,98482.99
2018-05-31T06:53:50.170Z,98477.06
2018-05-31T06:56:19.351Z,98481.59
2018-05-31T06:58:48.043Z,98483.58
2018-05-31T07:01:16.615Z,98495.09
2018-05-31T07:03:45.671Z,98492.27
2018-05-31T07:06:14.602Z,98490.95
2018-05-31T07:08:43.295Z,98497.38
2018-05-31T07:11:12.382Z,98497.38
2018-05-31T07:13:43.834Z,98504.55
2018-05-31T07:16:16.356Z,98509.39
2018-05-31T07:18:46.938Z,98510.89
2018-05-31T07:21:17.710Z,98509.45
2018-05-31T07:23:46.764Z,98504.88
2018-05-31T07:26:15.759Z,98503.72
2018-05-31T07:31:43.226Z,98509.39
2018-05-31T07:34:12.627Z,98514.66
2018-05-31T07:36:41.820Z,98518.84
2018-05-31T07:39:11.211Z,98520.42
2018-05-31T07:41:41.540Z,98531.03
2018-05-31T07:44:10.942Z,98532.39
2018-05-31T07:46:41.263Z,98531.13
2018-05-31T08:00:31.109Z,98543.27
2018-05-31T08:03:00.499Z,98540.02
2018-05-31T08:05:30.115Z,98551.18
2018-05-31T08:08:00.225Z,98553.56
2018-05-31T08:10:37.605Z,98544.13
2018-05-31T08:13:06.293Z,98543.30
2018-05-31T08:15:35.394Z,98544.14
2018-05-31T08:18:14.112Z,98548.42
2018-05-31T08:20:44.097Z,98548.41
2018-05-31T08:23:12.705Z,98542.17
2018-05-31T08:25:42.110Z,98549.48
2018-05-31T08:28:11.514Z,98547.79
2018-05-31T08:30:41.321Z,98563.30
2018-05-31T08:33:11.125Z,98574.85
2018-05-31T08:35:41.136Z,98569.40
2018-05-31T08:41:02.064Z,98577.22
2018-05-31T08:43:32.074Z,98576.63
2018-05-31T08:46:02.503Z,98581.31
2018-05-31T08:48:31.890Z,98581.70
2018-05-31T08:51:00.915Z,98589.67
2018-05-31T08:53:31.215Z,98593.75
2018-05-31T08:56:00.608Z,98594.06
2018-05-31T09:01:38.327Z,98599.58
2018-05-31T09:04:16.943Z,98602.84
2018-05-31T09:06:46.213Z,98602.33
2018-05-31T09:09:28.642Z,98612.05
2018-05-31T09:11:57.534Z,98619.75
2018-05-31T09:14:26.416Z,98618.50
2018-05-31T09:17:32.553Z,98623.91
2018-05-31T09:25:57.925Z,98620.45
2018-05-31T11:12:14.538Z,98554.89
2018-05-31T11:14:42.097Z,98557.04
2018-05-31T11:17:09.622Z,98551.66
2018-05-31T11:19:37.139Z,98556.31
2018-05-31T11:22:04.606Z,98546.53
2018-05-31T11:24:32.150Z,98545.69
2018-05-31T11:26:59.610Z,98546.46
2018-05-31T11:29:27.130Z,98546.20
2018-05-31T11:31:54.630Z,98540.42
2018-05-31T11:34:22.119Z,98530.69
2018-05-31T11:36:49.579Z,98539.80
2018-05-31T11:39:17.099Z,98538.45
2018-05-31T11:41:44.945Z,98540.88
2018-05-31T11:44:12.464Z,98541.55
2018-05-31T11:46:40.029Z,98545.47
2018-05-31T11:49:07.563Z,98549.41
2018-05-31T11:51:35.102Z,98538.96
2018-05-31T11:54:02.613Z,98533.13
2018-05-31T11:56:30.129Z,98529.17
2018-05-31T11:58:57.629Z,98529.42
2018-05-31T12:01:25.122Z,98533.42
2018-05-31T12:03:52.842Z,98525.80
2018-05-31T12:06:20.327Z,98521.60
2018-05-31T12:08:47.870Z,98507.64
2018-05-31T12:11:15.342Z,98515.99
2018-05-31T12:13:42.846Z,98503.52
2018-05-31T12:16:10.312Z,98497.23
2018-05-31T12:18:37.835Z,98509.74
2018-05-31T12:21:05.322Z,98511.91
2018-05-31T12:23:32.873Z,98498.00
2018-05-31T12:26:00.432Z,98503.26
2018-05-31T12:28:27.966Z,98491.55
2018-05-31T12:30:55.498Z,98489.09
2018-05-31T12:33:22.988Z,98488.25
2018-05-31T12:35:50.480Z,98485.55
2018-05-31T12:38:17.942Z,98480.21
2018-05-31T12:40:45.443Z,98475.81
2018-05-31T12:43:12.937Z,98473.80
2018-05-31T12:45:40.579Z,98461.65
2018-05-31T12:48:08.073Z,98465.05
2018-05-31T12:50:35.646Z,98456.40
2018-05-31T12:53:03.199Z,98466.52
2018-05-31T12:55:30.748Z,98457.53
2018-05-31T12:57:58.213Z,98455.36
2018-05-31T13:00:26.059Z,98447.33
2018-05-31T13:03:20.971Z,98444.34
2018-05-31T13:26:43.851Z,98425.39
2018-05-31T13:29:29.740Z,98417.80
2018-05-31T13:32:07.215Z,98406.45
2018-05-31T13:34:36.656Z,98401.55
2018-05-31T13:37:06.019Z,98391.69
2018-05-31T13:46:02.184Z,98397.30
2018-05-31T13:48:32.147Z,98395.42
2018-05-31T13:51:18.185Z,98386.57
2018-05-31T13:59:37.888Z,98379.44
2018-05-31T14:05:27.995Z,98370.16
2018-05-31T14:08:26.470Z,98359.77
2018-05-31T14:13:38.742Z,98366.08
2018-05-31T14:16:06.226Z,98361.09
2018-05-31T14:18:33.847Z,98358.02
2018-05-31T14:21:01.376Z,98352.08
2018-05-31T14:23:28.862Z,98353.16
2018-05-31T14:25:56.330Z,98356.25
2018-05-31T14:28:23.852Z,98355.45
2018-05-31T14:30:51.335Z,98360.73
2018-05-31T14:33:18.864Z,98355.09
2018-05-31T14:35:46.347Z,98361.22
2018-05-31T14:38:13.915Z,98357.92
2018-05-31T14:40:41.457Z,98359.17
2018-05-31T14:43:09.134Z,98355.39
2018-05-31T14:45:36.590Z,98350.17
2018-05-31T14:48:04.111Z,98359.12
2018-05-31T14:50:31.599Z,98359.34
2018-05-31T14:52:59.166Z,98364.28
2018-05-31T14:55:26.720Z,98358.02
2018-05-31T14:57:54.238Z,98359.96
2018-05-31T15:00:21.701Z,98349.33
2018-05-31T15:02:49.275Z,98344.84
2018-05-31T15:05:16.739Z,98347.25
2018-05-31T15:07:44.262Z,98342.04
2018-05-31T15:10:11.722Z,98339.69
2018-05-31T15:12:39.246Z,98341.16
2018-05-31T15:15:06.777Z,98341.31
2018-05-31T15:17:34.266Z,98344.80
2018-05-31T15:20:01.735Z,98352.78
2018-05-31T15:22:29.222Z,98348.94
2018-05-31T15:24:56.718Z,98356.58
2018-05-31T15:27:24.338Z,98352.55
2018-05-31T15:29:51.972Z,98351.34
2018-05-31T15:32:19.447Z,98348.83
2018-05-31T15:34:46.975Z,98351.73
2018-05-31T15:37:14.471Z,98348.94
2018-05-31T15:39:41.954Z,98345.76
2018-05-31T15:42:09.465Z,98356.36
2018-05-31T15:44:36.967Z,98347.59
2018-05-31T15:47:04.473Z,98347.23
2018-05-31T15:49:31.990Z,98345.87
2018-05-31T15:51:59.454Z,98341.47
2018-05-31T15:54:26.964Z,98329.69
2018-05-31T15:56:54.578Z,98328.27
2018-05-31T15:59:22.070Z,98329.16
2018-05-31T16:01:49.648Z,98323.34
2018-05-31T16:04:17.154Z,98321.09
2018-05-31T16:06:44.768Z,98316.97
2018-05-31T16:09:12.255Z,98319.31
2018-05-31T16:11:39.714Z,98319.66
2018-05-31T16:14:07.211Z,98317.84
2018-05-31T16:16:34.758Z,98318.06
2018-05-31T16:19:02.241Z,98322.59
2018-05-31T16:21:29.706Z,98318.68
2018-05-31T16:23:57.283Z,98319.97
2018-05-31T16:26:25.719Z,98325.70
2018-05-31T16:28:53.235Z,98339.56
2018-05-31T16:31:20.710Z,98335.55
2018-05-31T16:33:48.206Z,98330.63
2018-05-31T16:36:15.700Z,98338.63
2018-05-31T16:38:43.258Z,98341.31
2018-05-31T16:41:10.773Z,98351.42
2018-05-31T16:43:38.262Z,98352.70
2018-05-31T16:46:05.738Z,98384.05
2018-05-31T16:48:33.223Z,98399.57
2018-05-31T16:51:00.715Z,98406.40
2018-05-31T16:53:28.286Z,98420.33
2018-05-31T16:55:55.786Z,98429.48
2018-05-31T16:58:23.266Z,98430.01
2018-05-31T17:00:50.760Z,98437.91
2018-05-31T17:03:18.233Z,98442.20
2018-05-31T17:05:45.797Z,98453.58
2018-05-31T17:08:13.262Z,98455.84
2018-05-31T17:10:40.785Z,98459.38
2018-05-31T17:13:08.253Z,98478.84
2018-05-31T17:15:35.750Z,98495.14
2018-05-31T17:18:03.228Z,98519.02
2018-05-31T17:20:30.799Z,98527.50
2018-05-31T17:22:58.270Z,98538.15
2018-05-31T17:25:25.771Z,98542.28
2018-05-31T17:27:53.313Z,98542.97
2018-05-31T17:30:20.803Z,98539.13
2018-05-31T17:32:48.340Z,98544.05
2018-05-31T17:35:15.825Z,98521.12
2018-05-31T17:37:43.314Z,98493.32
2018-05-31T17:40:10.823Z,98483.24
2018-05-31T17:42:38.293Z,98493.78
2018-05-31T17:45:05.812Z,98509.43
2018-05-31T17:47:33.350Z,98511.84
2018-05-31T17:50:00.890Z,98506.55
2018-05-31T17:52:28.370Z,98513.73
2018-05-31T17:54:55.892Z,98523.92
2018-05-31T17:57:23.417Z,98522.19
2018-05-31T17:59:50.943Z,98540.20
2018-05-31T18:02:18.434Z,98539.72
2018-05-31T18:04:45.928Z,98538.03
2018-05-31T18:07:13.415Z,98537.03
2018-05-31T18:09:40.911Z,98538.86
2018-05-31T18:12:08.379Z,98543.52
2018-05-31T18:14:35.862Z,98550.79
2018-05-31T18:17:03.519Z,98562.70
2018-05-31T18:19:31.068Z,98590.64
2018-05-31T18:21:58.672Z,98592.68
2018-05-31T18:24:26.203Z,98597.23
2018-05-31T18:26:53.765Z,98590.21
2018-05-31T18:29:21.260Z,98590.31
2018-05-31T18:31:48.778Z,98578.91
2018-05-31T18:34:16.255Z,98585.84
2018-05-31T18:36:43.750Z,98585.50
2018-05-31T18:39:11.226Z,98588.27
2018-05-31T18:41:39.706Z,98587.27
2018-05-31T18:44:07.278Z,98598.47
2018-05-31T18:46:34.782Z,98598.05
2018-05-31T18:49:02.417Z,98609.59
2018-05-31T18:51:29.940Z,98620.58
2018-05-31T18:53:57.431Z,98623.28
2018-05-31T18:56:24.918Z,98633.78
2018-05-31T18:58:52.398Z,98635.55
2018-05-31T19:01:19.890Z,98642.36
2018-05-31T19:03:47.354Z,98655.98
2018-05-31T19:06:14.862Z,98660.64
2018-05-31T19:08:42.363Z,98670.70
2018-05-31T19:11:09.969Z,98672.22
2018-05-31T19:13:42.979Z,98663.92
2018-05-31T19:16:10.470Z,98667.13
2018-05-31T19:18:43.497Z,98674.42
2018-05-31T19:21:11.006Z,98682.33
2018-05-31T19:23:38.523Z,98673.89
2018-05-31T19:26:06.021Z,98661.64
2018-05-31T19:28:34.612Z,98658.50
2018-05-31T19:31:07.911Z,98663.41
2018-05-31T19:33:35.410Z,98679.19
2018-05-31T19:36:08.535Z,98697.86
2018-05-31T19:38:35.995Z,98715.52
2018-05-31T19:41:03.482Z,98728.58
2018-05-31T19:43:36.461Z,98740.11
2018-05-31T19:46:03.994Z,98743.66
2018-05-31T19:48:31.487Z,98736.13
2018-05-31T19:50:58.978Z,98736.66
2018-05-31T19:53:32.123Z,98746.69
2018-05-31T19:55:59.632Z,98749.72
2018-05-31T19:58:32.905Z,98745.31
2018-05-31T20:01:06.671Z,98744.55
2018-05-31T20:03:34.163Z,98733.05
2018-05-31T20:06:01.855Z,98741.01
2018-05-31T20:08:29.354Z,98734.44
2018-05-31T20:10:56.915Z,98733.08
2018-05-31T20:13:24.386Z,98717.00
2018-05-31T20:15:51.850Z,98711.59
2018-05-31T20:18:19.386Z,98702.78
2018-05-31T20:20:47.028Z,98709.23
2018-05-31T20:23:14.474Z,98710.81
2018-05-31T20:25:41.978Z,98713.70
2018-05-31T20:28:09.478Z,98721.77
2018-05-31T20:30:36.976Z,98724.23
2018-05-31T20:33:04.475Z,98717.48
2018-05-31T20:35:32.009Z,98711.06
2018-05-31T20:37:59.558Z,98715.71
2018-05-31T20:40:27.023Z,98724.14
2018-05-31T20:42:54.570Z,98721.38
2018-05-31T20:45:22.069Z,98716.22
2018-05-31T20:47:51.317Z,98709.92
2018-05-31T20:50:18.795Z,98718.02
2018-05-31T20:52:46.296Z,98724.83
2018-05-31T20:55:13.843Z,98729.56
2018-05-31T20:57:41.312Z,98739.04
2018-05-31T21:00:08.793Z,98736.52
2018-05-31T21:02:36.288Z,98736.52
2018-05-31T21:05:03.778Z,98736.24
2018-05-31T21:07:31.425Z,98737.32
2018-05-31T21:09:58.971Z,98736.63
2018-05-31T21:12:26.474Z,98736.58
2018-05-31T21:14:53.958Z,98739.48
2018-05-31T21:17:21.436Z,98734.83
2018-05-31T21:19:48.983Z,98739.66
2018-05-31T21:22:16.474Z,98737.56
2018-05-31T21:24:43.956Z,98741.84
2018-05-31T21:27:11.422Z,98732.30
2018-05-31T21:29:39.538Z,98738.73
2018-05-31T21:32:07.048Z,98733.34
2018-05-31T21:34:34.575Z,98733.65
2018-05-31T21:37:02.038Z,98735.88
2018-05-31T21:39:29.603Z,98738.16
2018-05-31T21:41:57.062Z,98747.92
2018-05-31T21:44:24.578Z,98745.11
2018-05-31T21:46:52.125Z,98749.90
2018-05-31T21:49:19.651Z,98751.52
2018-05-31T21:51:47.110Z,98751.94
2018-05-31T21:54:14.611Z,98750.50
2018-05-31T21:56:42.131Z,98758.41
2018-05-31T21:59:09.678Z,98754.07
2018-05-31T22:01:37.138Z,98748.95
2018-05-31T22:04:04.623Z,98747.22
2018-05-31T22:06:32.083Z,98748.66
2018-05-31T22:08:59.599Z,98743.63
2018-05-31T22:11:27.101Z,98743.11
2018-05-31T22:13:54.578Z,98744.44
2018-05-31T22:16:22.065Z,98738.28
2018-05-31T22:18:49.576Z,98742.22
2018-05-31T22:21:17.039Z,98738.17
2018-05-31T22:23:44.519Z,98743.91
2018-05-31T22:26:11.978Z,98746.69
2018-05-31T22:28:39.467Z,98750.61
2018-05-31T22:31:06.958Z,98755.30
2018-05-31T22:33:34.533Z,98756.10
2018-05-31T22:36:02.010Z,98748.16
2018-05-31T22:38:29.522Z,98743.28
2018-05-31T22:40:57.007Z,98738.38
2018-05-31T22:43:24.471Z,98732.42
2018-05-31T22:45:51.972Z,98726.98
2018-05-31T22:48:19.442Z,98723.33
2018-05-31T22:50:46.921Z,98713.70
2018-05-31T22:53:14.454Z,98717.95
2018-05-31T22:55:42.010Z,98723.88
2018-05-31T22:58:09.574Z,98729.80
2018-05-31T23:00:37.082Z,98722.93
2018-05-31T23:03:04.594Z,98729.64
2018-05-31T23:05:32.187Z,98741.80
2018-05-31T23:07:59.685Z,98749.50
2018-05-31T23:10:27.216Z,98752.41
2018-05-31T23:12:54.731Z,98757.98
2018-05-31T23:15:22.214Z,98766.27
2018-05-31T23:17:49.786Z,98776.32
2018-05-31T23:20:17.294Z,98782.81
2018-05-31T23:22:44.753Z,98788.08
2018-05-31T23:25:12.317Z,98793.86
2018-05-31T23:27:39.786Z,98794.75
2018-05-31T23:30:07.334Z,98796.44
2018-05-31T23:32:34.824Z,98796.06
2018-05-31T23:35:02.355Z,98790.72
2018-05-31T23:37:29.821Z,98792.47
2018-05-31T23:39:57.301Z,98793.49
2018-05-31T23:42:24.778Z,98787.53
2018-05-31T23:44:52.318Z,98792.09
2018-05-31T23:47:19.952Z,98794.80
2018-05-31T23:49:48.536Z,98798.09
2018-05-31T23:52:16.094Z,98803.85
2018-05-31T23:54:43.650Z,98806.69
2018-05-31T23:57:11.138Z,98815.64
2018-05-31T23:59:38.654Z,98822.81
